createdAt,value
2023-04-26T00:00:36.781Z,32.30
2023-04-26T00:03:04.798Z,32.90
2023-04-26T00:05:31.693Z,30.67
2023-04-26T00:07:59.049Z,30.65
2023-04-26T00:10:25.953Z,31.48
2023-04-26T00:12:53.071Z,31.00
2023-04-26T00:15:20.103Z,30.30
2023-04-26T00:17:47.366Z,30.63
2023-04-26T00:20:14.302Z,29.52
2023-04-26T00:22:41.158Z,25.67
2023-04-26T00:25:08.860Z,28.98
2023-04-26T00:27:36.022Z,27.63
2023-04-26T00:30:02.922Z,23.52
2023-04-26T00:32:31.655Z,22.90
2023-04-26T00:34:58.754Z,22.58
2023-04-26T00:37:25.549Z,21.15
2023-04-26T00:39:52.301Z,22.67
2023-04-26T00:42:19.799Z,23.27
2023-04-26T00:44:46.480Z,23.15
2023-04-26T00:47:13.883Z,22.15
2023-04-26T00:49:41.002Z,21.13
2023-04-26T00:52:08.256Z,20.90
2023-04-26T00:54:35.308Z,20.45
2023-04-26T00:57:03.069Z,19.55
2023-04-26T00:59:29.889Z,19.48
2023-04-26T01:01:57.749Z,18.80
2023-04-26T01:04:27.687Z,18.15
2023-04-26T01:06:55.602Z,18.85
2023-04-26T01:09:22.594Z,17.52
2023-04-26T01:11:50.620Z,18.50
2023-04-26T01:14:18.236Z,17.75
2023-04-26T01:16:47.200Z,18.95
2023-04-26T01:19:15.216Z,17.83
2023-04-26T01:21:43.224Z,17.75
2023-04-26T01:24:11.804Z,18.42
2023-04-26T01:26:46.531Z,19.83
2023-04-26T01:29:24.495Z,20.98
2023-04-26T01:31:51.571Z,22.05
2023-04-26T01:34:18.356Z,21.70
2023-04-26T01:36:45.307Z,20.77
2023-04-26T01:39:12.819Z,21.50
2023-04-26T01:41:39.901Z,21.02
2023-04-26T01:44:06.903Z,21.42
2023-04-26T01:46:33.944Z,21.13
2023-04-26T01:49:00.934Z,21.95
2023-04-26T01:51:27.815Z,20.00
2023-04-26T01:53:54.895Z,20.20
2023-04-26T01:56:23.953Z,21.40
2023-04-26T01:58:51.630Z,21.77
2023-04-26T02:01:18.627Z,21.08
2023-04-26T02:03:45.592Z,21.88
2023-04-26T02:06:12.594Z,23.67
2023-04-26T02:08:39.582Z,20.40
2023-04-26T02:11:06.823Z,22.77
2023-04-26T02:13:33.747Z,23.33
2023-04-26T02:16:00.765Z,23.15
2023-04-26T02:18:27.930Z,17.95
2023-04-26T02:20:54.989Z,9.75
2023-04-26T02:23:22.019Z,6.07
2023-04-26T02:25:49.691Z,4.25
2023-04-26T02:28:16.826Z,3.75
2023-04-26T02:30:44.990Z,4.00
2023-04-26T02:33:12.165Z,3.67
2023-04-26T02:35:39.052Z,3.35
2023-04-26T02:38:06.212Z,3.42
2023-04-26T02:40:33.240Z,3.42
2023-04-26T02:43:00.128Z,3.00
2023-04-26T02:45:27.155Z,3.42
2023-04-26T02:47:54.097Z,3.20
2023-04-26T02:50:21.320Z,3.30
2023-04-26T02:52:48.437Z,2.95
2023-04-26T02:55:15.412Z,3.10
2023-04-26T02:57:42.232Z,3.58
2023-04-26T03:00:09.548Z,3.00
2023-04-26T03:02:36.780Z,3.00
2023-04-26T03:05:04.137Z,2.80
2023-04-26T03:07:31.730Z,2.83
2023-04-26T03:09:58.953Z,2.63
2023-04-26T03:12:26.360Z,2.80
2023-04-26T03:14:53.507Z,3.05
2023-04-26T03:17:20.488Z,3.13
2023-04-26T03:19:47.544Z,2.80
2023-04-26T03:22:16.497Z,3.35
2023-04-26T03:24:44.634Z,3.58
2023-04-26T03:27:11.469Z,3.28
2023-04-26T03:29:38.586Z,3.22
2023-04-26T03:32:06.388Z,3.20
2023-04-26T03:34:33.574Z,3.30
2023-04-26T03:37:00.606Z,4.03
2023-04-26T03:39:27.401Z,3.08
2023-04-26T03:41:54.216Z,3.50
2023-04-26T03:44:21.216Z,4.22
2023-04-26T03:46:48.185Z,2.97
2023-04-26T03:49:15.125Z,3.20
2023-04-26T03:51:42.357Z,3.15
2023-04-26T03:54:09.273Z,2.88
2023-04-26T03:56:37.105Z,2.97
2023-04-26T03:59:05.028Z,3.05
2023-04-26T04:01:32.060Z,3.22
2023-04-26T04:03:59.454Z,2.40
2023-04-26T04:06:26.908Z,3.10
2023-04-26T04:08:54.065Z,2.75
2023-04-26T04:11:21.975Z,1.88
2023-04-26T04:13:49.013Z,1.52
2023-04-26T04:16:15.924Z,1.30
2023-04-26T04:18:42.856Z,1.00
2023-04-26T04:21:09.870Z,2.63
2023-04-26T04:23:37.385Z,0.90
2023-04-26T04:26:04.628Z,1.30
2023-04-26T04:28:32.984Z,0.93
2023-04-26T04:31:01.138Z,0.93
2023-04-26T04:33:28.814Z,0.50
2023-04-26T04:35:55.814Z,0.90
2023-04-26T04:38:23.524Z,0.70
2023-04-26T04:40:50.592Z,0.70
2023-04-26T04:43:17.993Z,0.70
2023-04-26T04:45:45.059Z,0.43
2023-04-26T04:48:12.097Z,0.40
2023-04-26T04:50:42.420Z,0.60
2023-04-26T04:53:09.515Z,0.70
2023-04-26T04:55:36.726Z,0.60
2023-04-26T04:58:04.589Z,0.90
2023-04-26T05:00:31.603Z,0.73
2023-04-26T05:02:58.679Z,1.15
2023-04-26T05:05:25.791Z,0.90
2023-04-26T05:07:52.639Z,0.70
2023-04-26T05:10:19.756Z,0.68
2023-04-26T05:12:46.735Z,0.68
2023-04-26T05:15:13.599Z,0.70
2023-04-26T05:17:42.600Z,0.80
2023-04-26T05:20:11.053Z,0.88
2023-04-26T05:22:40.046Z,0.65
2023-04-26T05:25:08.611Z,0.60
2023-04-26T05:27:36.926Z,0.50
2023-04-26T05:30:06.351Z,0.63
2023-04-26T05:32:33.476Z,0.60
2023-04-26T05:35:01.567Z,0.52
2023-04-26T05:37:28.510Z,0.50
2023-04-26T05:39:55.373Z,0.50
2023-04-26T05:42:22.447Z,0.52
2023-04-26T05:44:49.455Z,0.52
2023-04-26T05:47:16.784Z,0.40
2023-04-26T05:49:43.672Z,0.63
2023-04-26T05:52:10.692Z,0.40
2023-04-26T05:54:37.878Z,0.47
2023-04-26T05:57:04.903Z,0.50
2023-04-26T05:59:33.066Z,0.70
2023-04-26T06:02:00.058Z,0.60
2023-04-26T06:04:27.506Z,0.50
2023-04-26T06:06:54.725Z,0.50
2023-04-26T06:09:23.173Z,0.50
2023-04-26T06:11:50.001Z,0.50
2023-04-26T06:14:29.562Z,0.40
2023-04-26T06:16:57.998Z,0.50
2023-04-26T06:19:25.055Z,0.50
2023-04-26T06:21:55.634Z,0.80
2023-04-26T06:24:24.657Z,0.50
2023-04-26T06:26:51.907Z,0.60
2023-04-26T06:29:18.937Z,0.38
2023-04-26T06:31:46.441Z,0.68
2023-04-26T06:34:14.438Z,0.40
2023-04-26T06:36:41.567Z,0.47
2023-04-26T06:39:08.492Z,0.50
2023-04-26T06:41:35.181Z,0.45
2023-04-26T06:44:01.994Z,0.40
2023-04-26T06:46:28.776Z,0.45
2023-04-26T06:48:56.680Z,0.45
2023-04-26T06:51:23.547Z,0.70
2023-04-26T06:53:50.675Z,0.32
2023-04-26T06:56:19.683Z,0.50
2023-04-26T06:59:01.181Z,0.40
2023-04-26T07:01:29.515Z,0.40
2023-04-26T07:03:57.965Z,0.60
2023-04-26T07:06:26.441Z,0.30
2023-04-26T07:08:55.116Z,0.30
2023-04-26T07:11:24.627Z,0.40
2023-04-26T07:13:53.224Z,0.30
2023-04-26T07:16:20.389Z,0.40
2023-04-26T07:18:48.648Z,0.45
2023-04-26T07:21:16.355Z,0.38
2023-04-26T07:23:43.309Z,0.30
2023-04-26T07:26:13.674Z,0.20
2023-04-26T07:28:40.756Z,0.20
2023-04-26T07:31:09.651Z,0.25
2023-04-26T07:33:37.838Z,0.38
2023-04-26T07:36:05.457Z,0.22
2023-04-26T07:38:32.382Z,0.30
2023-04-26T07:41:01.326Z,0.30
2023-04-26T07:43:28.497Z,0.47
2023-04-26T07:45:55.595Z,0.40
2023-04-26T07:48:22.851Z,0.32
2023-04-26T07:50:49.753Z,0.43
2023-04-26T07:53:16.861Z,0.30
2023-04-26T07:55:43.698Z,0.50
2023-04-26T07:58:14.613Z,0.50
2023-04-26T08:00:42.203Z,0.40
2023-04-26T08:03:10.457Z,0.70
2023-04-26T08:05:37.918Z,0.45
2023-04-26T08:08:05.248Z,0.50
2023-04-26T08:10:32.284Z,0.60
2023-04-26T08:13:03.557Z,0.52
2023-04-26T08:15:30.600Z,0.50
2023-04-26T08:17:57.461Z,0.50
2023-04-26T08:20:24.517Z,0.40
2023-04-26T08:22:56.352Z,0.38
2023-04-26T08:25:24.073Z,0.82
2023-04-26T08:27:51.505Z,0.40
2023-04-26T08:30:19.307Z,0.28
2023-04-26T08:32:46.593Z,0.40
2023-04-26T08:35:13.651Z,0.30
2023-04-26T08:37:40.730Z,0.30
2023-04-26T08:40:12.064Z,0.40
2023-04-26T08:42:44.240Z,0.30
2023-04-26T08:45:11.855Z,0.35
2023-04-26T08:47:41.518Z,0.40
2023-04-26T08:50:10.541Z,0.40
2023-04-26T08:52:38.513Z,0.60
2023-04-26T08:55:07.956Z,0.30
2023-04-26T08:57:35.973Z,0.30
2023-04-26T09:00:14.790Z,0.22
2023-04-26T09:02:49.851Z,0.28
2023-04-26T09:05:18.010Z,0.40
2023-04-26T09:07:46.288Z,0.30
2023-04-26T09:10:18.096Z,0.47
2023-04-26T09:12:44.848Z,0.28
2023-04-26T09:15:12.077Z,0.22
2023-04-26T09:17:41.850Z,0.38
2023-04-26T09:20:26.704Z,0.50
2023-04-26T09:23:16.012Z,0.47
2023-04-26T09:25:43.045Z,0.30
2023-04-26T09:28:21.780Z,0.40
2023-04-26T09:30:49.527Z,0.45
2023-04-26T09:33:16.974Z,0.70
2023-04-26T09:35:44.348Z,0.40
2023-04-26T09:38:16.344Z,0.30
2023-04-26T09:40:48.751Z,0.60
2023-04-26T09:43:19.922Z,0.50
2023-04-26T09:45:53.160Z,0.45
2023-04-26T09:48:24.238Z,0.50
2023-04-26T09:50:55.798Z,0.50
2023-04-26T09:53:45.737Z,0.50
2023-04-26T09:56:13.841Z,0.50
2023-04-26T09:59:00.904Z,0.30
2023-04-26T10:01:30.245Z,0.43
2023-04-26T10:03:58.353Z,0.38
2023-04-26T10:06:25.875Z,0.50
2023-04-26T10:08:53.108Z,0.30
2023-04-26T10:11:22.191Z,0.60
2023-04-26T10:13:51.883Z,0.57
2023-04-26T10:16:21.141Z,0.60
2023-04-26T10:18:49.420Z,0.70
2023-04-26T10:21:27.587Z,0.70
2023-04-26T10:23:54.537Z,0.80
2023-04-26T10:26:47.295Z,0.60
2023-04-26T10:29:14.890Z,0.60
2023-04-26T10:32:01.906Z,0.85
2023-04-26T10:34:33.628Z,0.77
2023-04-26T10:37:08.663Z,0.63
2023-04-26T10:39:39.387Z,0.85
2023-04-26T10:42:27.215Z,0.80
2023-04-26T10:44:59.285Z,0.47
2023-04-26T10:47:37.880Z,0.50
2023-04-26T10:50:06.492Z,0.60
2023-04-26T10:52:34.001Z,0.70
2023-04-26T10:55:02.540Z,0.70
2023-04-26T10:57:50.649Z,1.45
2023-04-26T11:00:27.104Z,0.65
2023-04-26T11:02:58.315Z,0.70
2023-04-26T11:05:37.582Z,0.98
2023-04-26T11:08:06.642Z,0.57
2023-04-26T11:10:35.699Z,0.63
2023-04-26T11:13:04.291Z,0.40
2023-04-26T11:15:34.686Z,0.55
2023-04-26T11:18:05.783Z,0.80
2023-04-26T11:20:34.007Z,0.77
2023-04-26T11:23:01.630Z,1.08
2023-04-26T11:25:30.403Z,0.80
2023-04-26T11:27:59.693Z,0.77
2023-04-26T11:30:29.081Z,0.50
2023-04-26T11:32:56.310Z,0.60
2023-04-26T11:35:23.713Z,0.80
2023-04-26T11:37:53.753Z,1.05
2023-04-26T11:40:20.973Z,0.98
2023-04-26T11:42:48.283Z,0.55
2023-04-26T11:45:18.103Z,0.90
2023-04-26T11:47:46.977Z,0.70
2023-04-26T11:50:14.410Z,0.50
2023-04-26T11:52:41.834Z,0.90
2023-04-26T11:55:10.438Z,0.75
2023-04-26T11:57:37.553Z,0.80
2023-04-26T12:00:17.399Z,0.80
2023-04-26T12:02:48.338Z,0.70
2023-04-26T12:05:30.752Z,0.70
2023-04-26T12:07:59.928Z,0.70
2023-04-26T12:10:28.710Z,0.95
2023-04-26T12:12:59.253Z,0.68
2023-04-26T12:15:30.090Z,0.93
2023-04-26T12:18:09.111Z,0.82
2023-04-26T12:20:39.254Z,0.70
2023-04-26T12:23:07.781Z,0.73
2023-04-26T12:25:36.276Z,0.63
2023-04-26T12:28:12.655Z,0.95
2023-04-26T12:30:41.020Z,0.82
2023-04-26T12:33:16.544Z,0.75
2023-04-26T12:35:44.622Z,0.90
2023-04-26T12:38:12.662Z,0.95
2023-04-26T12:40:39.747Z,0.88
2023-04-26T12:43:07.247Z,0.52
2023-04-26T12:45:34.915Z,0.82
2023-04-26T12:48:02.251Z,0.70
2023-04-26T12:50:29.364Z,1.08
2023-04-26T12:52:56.703Z,0.60
2023-04-26T12:55:23.800Z,0.40
2023-04-26T12:57:50.549Z,0.60
2023-04-26T13:00:21.854Z,0.55
2023-04-26T13:02:48.837Z,0.70
2023-04-26T13:05:16.124Z,0.90
2023-04-26T13:07:44.088Z,0.75
2023-04-26T13:10:13.134Z,0.60
2023-04-26T13:12:40.565Z,1.05
2023-04-26T13:15:08.474Z,0.98
2023-04-26T13:17:39.507Z,0.55
2023-04-26T13:20:07.510Z,1.00
2023-04-26T13:22:34.792Z,0.60
2023-04-26T13:25:01.860Z,0.52
2023-04-26T13:27:31.334Z,0.52
2023-04-26T13:29:58.904Z,0.77
2023-04-26T13:32:26.259Z,0.68
2023-04-26T13:34:53.667Z,1.88
2023-04-26T13:37:21.564Z,0.50
2023-04-26T13:39:48.695Z,0.80
2023-04-26T13:42:16.603Z,0.70
2023-04-26T13:44:44.228Z,0.82
2023-04-26T13:47:11.336Z,0.63
2023-04-26T13:49:41.677Z,0.70
2023-04-26T13:52:09.089Z,0.60
2023-04-26T13:54:37.142Z,0.60
2023-04-26T13:57:04.566Z,0.70
2023-04-26T13:59:31.499Z,0.55
2023-04-26T14:01:59.220Z,0.50
2023-04-26T14:04:26.674Z,1.13
2023-04-26T14:06:54.005Z,0.90
2023-04-26T14:09:20.959Z,0.60
2023-04-26T14:11:57.050Z,0.77
2023-04-26T14:14:27.712Z,1.17
2023-04-26T14:16:54.589Z,0.88
2023-04-26T14:19:21.747Z,0.60
2023-04-26T14:21:48.641Z,0.60
2023-04-26T14:24:15.485Z,0.60
2023-04-26T14:26:42.435Z,0.80
2023-04-26T14:29:09.522Z,0.80
2023-04-26T14:31:36.572Z,0.80
2023-04-26T14:34:03.559Z,0.90
2023-04-26T14:36:30.559Z,0.57
2023-04-26T14:38:57.453Z,0.60
2023-04-26T14:41:25.456Z,0.82
2023-04-26T14:43:52.341Z,0.65
2023-04-26T14:46:20.083Z,1.10
2023-04-26T14:48:47.587Z,0.90
2023-04-26T14:51:14.495Z,0.80
2023-04-26T14:53:41.398Z,0.57
2023-04-26T14:56:09.974Z,0.55
2023-04-26T14:58:37.785Z,0.50
2023-04-26T15:01:04.992Z,0.70
2023-04-26T15:03:32.912Z,0.60
2023-04-26T15:06:00.304Z,0.60
2023-04-26T15:08:27.496Z,0.55
2023-04-26T15:10:54.646Z,0.63
2023-04-26T15:13:22.523Z,0.60
2023-04-26T15:15:49.519Z,0.38
2023-04-26T15:18:16.692Z,0.47
2023-04-26T15:20:43.459Z,0.47
2023-04-26T15:23:10.991Z,0.47
2023-04-26T15:25:37.914Z,0.75
2023-04-26T15:28:04.983Z,0.35
2023-04-26T15:30:31.950Z,0.50
2023-04-26T15:32:59.074Z,0.32
2023-04-26T15:35:26.129Z,0.40
2023-04-26T15:37:54.149Z,0.40
2023-04-26T15:40:22.376Z,0.40
2023-04-26T15:42:49.678Z,0.30
2023-04-26T15:45:16.905Z,0.30
2023-04-26T15:47:44.231Z,0.57
2023-04-26T15:50:11.520Z,0.47
2023-04-26T15:52:39.693Z,0.50
2023-04-26T15:55:07.572Z,0.30
2023-04-26T15:57:34.733Z,0.50
2023-04-26T16:00:13.476Z,0.60
2023-04-26T16:02:43.006Z,0.43
2023-04-26T16:05:11.466Z,0.45
2023-04-26T16:07:41.624Z,0.30
2023-04-26T16:10:15.932Z,0.20
2023-04-26T16:12:44.627Z,0.30
2023-04-26T16:15:11.816Z,0.30
2023-04-26T16:17:39.540Z,0.90
2023-04-26T16:20:08.222Z,0.40
2023-04-26T16:22:35.768Z,0.35
2023-04-26T16:25:04.792Z,0.40
2023-04-26T16:27:31.787Z,0.22
2023-04-26T16:29:58.899Z,0.47
2023-04-26T16:32:26.614Z,0.20
2023-04-26T16:34:53.733Z,0.40
2023-04-26T16:37:21.118Z,0.50
2023-04-26T16:39:48.154Z,0.55
2023-04-26T16:42:15.226Z,0.45
2023-04-26T16:44:45.212Z,0.50
2023-04-26T16:47:12.173Z,0.40
2023-04-26T16:49:39.274Z,0.30
2023-04-26T16:52:06.247Z,0.30
2023-04-26T16:54:33.297Z,0.47
2023-04-26T16:57:00.188Z,0.52
2023-04-26T16:59:27.607Z,0.35
2023-04-26T17:01:54.903Z,0.52
2023-04-26T17:04:22.061Z,0.47
2023-04-26T17:06:49.031Z,0.43
2023-04-26T17:09:16.227Z,0.47
2023-04-26T17:11:44.321Z,0.65
2023-04-26T17:14:11.412Z,0.60
2023-04-26T17:16:38.503Z,0.50
2023-04-26T17:19:05.613Z,0.40
2023-04-26T17:21:32.862Z,0.30
2023-04-26T17:23:59.913Z,0.47
2023-04-26T17:26:27.053Z,0.50
2023-04-26T17:28:54.875Z,0.50
2023-04-26T17:31:31.016Z,0.55
2023-04-26T17:33:57.878Z,0.40
2023-04-26T17:36:25.032Z,0.40
2023-04-26T17:38:51.960Z,0.60
2023-04-26T17:41:19.107Z,0.82
2023-04-26T17:43:46.227Z,0.65
2023-04-26T17:46:13.437Z,0.60
2023-04-26T17:48:40.739Z,0.70
2023-04-26T17:51:07.937Z,0.60
2023-04-26T17:53:35.034Z,0.50
2023-04-26T17:56:01.898Z,0.52
2023-04-26T17:58:28.750Z,0.50
2023-04-26T18:00:55.905Z,0.52
2023-04-26T18:03:24.146Z,0.70
2023-04-26T18:05:51.374Z,0.95
2023-04-26T18:08:18.456Z,0.73
2023-04-26T18:10:47.814Z,0.70
2023-04-26T18:13:16.315Z,0.80
2023-04-26T18:15:43.156Z,0.40
2023-04-26T18:18:10.134Z,0.50
2023-04-26T18:20:37.401Z,0.70
2023-04-26T18:23:07.523Z,0.60
2023-04-26T18:25:34.253Z,0.77
2023-04-26T18:28:01.250Z,1.10
2023-04-26T18:30:28.105Z,0.80
2023-04-26T18:32:55.246Z,0.77
2023-04-26T18:35:22.214Z,0.80
2023-04-26T18:37:49.163Z,0.70
2023-04-26T18:40:16.180Z,1.10
2023-04-26T18:42:46.329Z,0.65
2023-04-26T18:45:14.220Z,0.68
2023-04-26T18:47:41.925Z,0.70
2023-04-26T18:50:09.420Z,0.63
2023-04-26T18:52:36.500Z,0.77
2023-04-26T18:55:03.596Z,0.80
2023-04-26T18:57:31.809Z,0.85
2023-04-26T19:00:00.559Z,0.55
2023-04-26T19:02:27.699Z,0.70
2023-04-26T19:04:54.827Z,0.70
2023-04-26T19:07:21.938Z,0.90
2023-04-26T19:10:01.047Z,0.70
2023-04-26T19:12:28.224Z,1.00
2023-04-26T19:14:55.157Z,0.70
2023-04-26T19:17:22.420Z,0.85
2023-04-26T19:19:52.797Z,0.90
2023-04-26T19:22:19.845Z,0.82
2023-04-26T19:24:50.726Z,0.70
2023-04-26T19:27:17.950Z,0.80
2023-04-26T19:29:44.900Z,0.90
2023-04-26T19:32:12.002Z,0.75
2023-04-26T19:34:40.966Z,0.90
2023-04-26T19:37:08.059Z,0.82
2023-04-26T19:39:35.149Z,1.02
2023-04-26T19:42:03.573Z,1.13
2023-04-26T19:44:31.917Z,0.77
2023-04-26T19:46:59.126Z,1.00
2023-04-26T19:49:28.527Z,1.02
2023-04-26T19:51:56.236Z,1.13
2023-04-26T19:54:23.300Z,1.02
2023-04-26T19:56:50.156Z,1.17
2023-04-26T19:59:17.513Z,1.00
2023-04-26T20:01:44.287Z,0.75
2023-04-26T20:04:11.531Z,0.90
2023-04-26T20:06:38.990Z,1.00
2023-04-26T20:09:07.115Z,0.82
2023-04-26T20:11:34.365Z,0.88
2023-04-26T20:14:01.225Z,0.70
2023-04-26T20:16:28.240Z,1.02
2023-04-26T20:18:55.304Z,0.73
2023-04-26T20:21:22.014Z,1.00
2023-04-26T20:23:48.955Z,0.93
2023-04-26T20:26:16.036Z,0.88
2023-04-26T20:28:43.023Z,1.42
2023-04-26T20:31:10.347Z,1.23
2023-04-26T20:33:37.725Z,0.90
2023-04-26T20:36:05.476Z,0.98
2023-04-26T20:38:33.016Z,0.90
2023-04-26T20:41:00.693Z,1.00
2023-04-26T20:43:27.803Z,0.90
2023-04-26T20:45:54.906Z,1.17
2023-04-26T20:48:22.318Z,0.98
2023-04-26T20:50:49.059Z,0.93
2023-04-26T20:53:16.676Z,0.75
2023-04-26T20:55:43.561Z,0.82
2023-04-26T20:58:10.608Z,1.10
2023-04-26T21:00:37.620Z,0.70
2023-04-26T21:03:05.042Z,1.00
2023-04-26T21:05:32.568Z,0.85
2023-04-26T21:07:59.270Z,1.05
2023-04-26T21:10:26.307Z,1.05
2023-04-26T21:12:53.206Z,1.00
2023-04-26T21:15:19.936Z,0.82
2023-04-26T21:17:46.970Z,0.75
2023-04-26T21:20:14.109Z,0.80
2023-04-26T21:22:41.056Z,1.10
2023-04-26T21:25:08.325Z,1.45
2023-04-26T21:27:35.906Z,0.93
2023-04-26T21:30:02.937Z,0.80
2023-04-26T21:32:29.936Z,1.00
2023-04-26T21:34:57.041Z,1.08
2023-04-26T21:37:24.557Z,1.00
2023-04-26T21:39:51.625Z,1.00
2023-04-26T21:42:18.976Z,0.90
2023-04-26T21:44:45.878Z,1.13
2023-04-26T21:47:15.744Z,1.00
2023-04-26T21:49:45.918Z,1.00
2023-04-26T21:52:12.929Z,0.90
2023-04-26T21:54:40.085Z,1.00
2023-04-26T21:57:07.289Z,0.80
2023-04-26T21:59:34.417Z,1.27
2023-04-26T22:02:01.694Z,0.90
2023-04-26T22:04:29.096Z,1.10
2023-04-26T22:06:56.277Z,1.00
2023-04-26T22:09:22.996Z,1.00
2023-04-26T22:11:50.026Z,1.25
2023-04-26T22:14:30.279Z,1.00
2023-04-26T22:16:57.521Z,1.10
2023-04-26T22:19:24.383Z,0.95
2023-04-26T22:21:51.304Z,1.13
2023-04-26T22:24:18.176Z,1.17
2023-04-26T22:26:45.096Z,1.17
2023-04-26T22:29:12.701Z,1.00
2023-04-26T22:31:39.916Z,1.10
2023-04-26T22:34:06.665Z,1.23
2023-04-26T22:36:33.509Z,0.93
2023-04-26T22:39:00.398Z,0.90
2023-04-26T22:41:27.542Z,1.00
2023-04-26T22:43:54.262Z,1.00
2023-04-26T22:46:21.270Z,0.90
2023-04-26T22:48:48.190Z,0.90
2023-04-26T22:51:15.521Z,1.02
2023-04-26T22:53:42.498Z,1.10
2023-04-26T22:56:09.214Z,1.25
2023-04-26T22:58:36.174Z,1.13
2023-04-26T23:01:03.308Z,1.08
2023-04-26T23:03:30.370Z,0.98
2023-04-26T23:05:57.344Z,0.75
2023-04-26T23:08:24.213Z,1.05
2023-04-26T23:10:51.129Z,1.10
2023-04-26T23:13:17.859Z,1.17
2023-04-26T23:15:44.774Z,0.82
2023-04-26T23:18:12.003Z,0.90
2023-04-26T23:20:39.509Z,1.20
2023-04-26T23:23:06.492Z,1.20
2023-04-26T23:25:33.303Z,1.38
2023-04-26T23:28:01.335Z,1.40
2023-04-26T23:30:28.340Z,1.10
2023-04-26T23:32:55.106Z,1.40
2023-04-26T23:35:22.077Z,1.02
2023-04-26T23:37:52.572Z,1.20
2023-04-26T23:40:19.574Z,1.10
2023-04-26T23:42:46.821Z,1.33
2023-04-26T23:45:13.852Z,1.20
2023-04-26T23:47:40.911Z,1.15
2023-04-26T23:50:08.057Z,1.10
2023-04-26T23:52:35.203Z,1.20
2023-04-26T23:55:02.331Z,1.08
2023-04-26T23:57:29.309Z,1.42
2023-04-26T23:59:56.417Z,1.20
